Time;durP1;ratioP1;P1;durP2;ratioP2;P2;SDS_P1;SDS_P2;PMS_P1;PMS_P2;Temp;Humidity;BMP_temperature;BMP_pressure;BME280_temperature;BME280_humidity;BME280_pressure;Samples;Min_cycle;Max_cycle;Signal;HPM_P1;HPM_P2
2022/08/03 00:01:06;;;;;;;2.97;2.67;;;19.30;87.30;;;;;;5085506;28;20641;-81
2022/08/03 00:03:33;;;;;;;2.33;2.13;;;19.20;86.90;;;;;;5085818;28;20720;-82
2022/08/03 00:06:00;;;;;;;1.77;1.63;;;19.30;87.10;;;;;;5089513;28;20651;-81
2022/08/03 00:08:27;;;;;;;2.60;2.40;;;19.20;89.50;;;;;;5087693;28;20747;-81
2022/08/03 00:10:54;;;;;;;3.43;3.10;;;19.10;89.90;;;;;;5087416;28;20652;-81
2022/08/03 00:13:22;;;;;;;3.17;2.60;;;19.10;90.00;;;;;;5072681;28;20737;-81
2022/08/03 00:15:51;;;;;;;2.60;2.40;;;19.10;88.90;;;;;;5084622;28;20995;-81
2022/08/03 00:18:19;;;;;;;3.40;2.23;;;19.20;88.70;;;;;;5068647;28;20625;-81
2022/08/03 00:20:46;;;;;;;2.30;2.10;;;19.10;90.10;;;;;;5072314;28;20635;-81
2022/08/03 00:23:14;;;;;;;2.23;2.00;;;19.00;90.30;;;;;;5075997;28;20661;-81
2022/08/03 00:25:41;;;;;;;3.00;2.80;;;18.90;90.50;;;;;;5081218;28;20621;-81
2022/08/03 00:28:09;;;;;;;2.53;2.33;;;18.90;90.90;;;;;;5087302;28;20691;-81
2022/08/03 00:30:37;;;;;;;3.30;3.00;;;19.00;90.80;;;;;;5077992;28;21136;-81
2022/08/03 00:33:06;;;;;;;1.93;1.83;;;19.00;91.30;;;;;;5079013;28;20724;-81
2022/08/03 00:35:34;;;;;;;3.03;2.60;;;19.00;91.40;;;;;;5068648;28;21017;-81
2022/08/03 00:38:02;;;;;;;3.13;2.47;;;18.90;91.40;;;;;;5084237;28;20639;-81
2022/08/03 00:40:29;;;;;;;2.50;2.23;;;18.90;92.00;;;;;;5086612;28;20633;-81
2022/08/03 00:42:59;;;;;;;3.10;2.27;;;18.90;92.20;;;;;;5078814;28;20628;-81
2022/08/03 00:45:29;;;;;;;2.60;2.20;;;18.90;91.40;;;;;;5079779;28;20691;-81
2022/08/03 00:47:58;;;;;;;3.43;2.67;;;18.90;91.90;;;;;;5086390;28;20722;-81
2022/08/03 00:50:29;;;;;;;2.40;2.20;;;18.70;92.40;;;;;;5079629;28;20613;-81
2022/08/03 00:52:59;;;;;;;2.30;2.10;;;18.70;92.90;;;;;;5079926;28;20719;-81
2022/08/03 00:55:28;;;;;;;2.40;2.07;;;18.60;92.80;;;;;;5085158;28;20654;-81
2022/08/03 00:57:55;;;;;;;2.80;2.60;;;18.60;93.00;;;;;;5083947;28;20646;-81
2022/08/03 01:00:25;;;;;;;2.70;2.50;;;18.70;93.30;;;;;;5068413;28;20629;-81
2022/08/03 01:02:52;;;;;;;2.23;2.03;;;18.70;93.40;;;;;;5072327;28;20610;-81
2022/08/03 01:05:19;;;;;;;2.57;2.27;;;18.70;93.20;;;;;;5067066;28;20688;-81
2022/08/03 01:08:03;;;;;;;2.77;2.50;;;18.70;92.40;;;;;;5074970;28;20624;-81
2022/08/03 01:10:37;;;;;;;3.07;2.60;;;18.70;92.70;;;;;;5087158;28;20732;-81
2022/08/03 01:13:21;;;;;;;2.80;2.30;;;18.70;92.30;;;;;;5074321;28;20625;-81
2022/08/03 01:15:57;;;;;;;2.57;2.27;;;18.70;92.40;;;;;;5085609;28;20621;-81
2022/08/03 01:18:32;;;;;;;2.87;2.63;;;18.70;92.40;;;;;;5068210;28;20617;-81
2022/08/03 01:21:04;;;;;;;2.70;2.50;;;18.70;92.60;;;;;;5081956;28;20640;-81
2022/08/03 01:24:00;;;;;;;2.60;2.20;;;18.70;92.80;;;;;;5086126;28;20727;-81
2022/08/03 01:26:56;;;;;;;3.20;2.27;;;18.70;93.80;;;;;;5086757;28;20701;-81
2022/08/03 01:29:55;;;;;;;2.10;2.00;;;18.60;93.70;;;;;;5079986;28;21051;-81
2022/08/03 01:32:27;;;;;;;2.27;2.07;;;18.60;93.50;;;;;;5066410;28;20851;-81
2022/08/03 01:35:02;;;;;;;2.73;2.47;;;18.50;93.90;;;;;;5081777;28;20653;-81
2022/08/03 01:37:36;;;;;;;2.83;2.60;;;18.50;94.20;;;;;;5086776;28;20633;-81
2022/08/03 01:40:06;;;;;;;2.47;2.27;;;18.40;94.90;;;;;;5073405;28;20634;-81
2022/08/03 01:42:36;;;;;;;3.57;2.87;;;18.40;94.90;;;;;;5069534;28;20654;-81
2022/08/03 01:45:07;;;;;;;3.00;2.10;;;18.30;95.20;;;;;;5067786;28;20626;-81
2022/08/03 01:47:36;;;;;;;2.70;2.50;;;18.30;95.70;;;;;;5070762;28;20617;-81
2022/08/03 01:50:07;;;;;;;2.73;2.43;;;18.40;95.30;;;;;;5086991;28;20766;-81
2022/08/03 01:52:37;;;;;;;2.80;2.60;;;18.40;94.90;;;;;;5086051;28;20642;-81
2022/08/03 01:55:07;;;;;;;4.87;2.70;;;18.40;95.10;;;;;;5085514;28;20664;-81
2022/08/03 01:57:36;;;;;;;2.93;2.63;;;18.40;95.80;;;;;;5085670;28;20609;-81
2022/08/03 02:00:08;;;;;;;2.03;1.83;;;18.40;95.60;;;;;;5069967;28;20725;-80
2022/08/03 02:02:36;;;;;;;2.97;2.77;;;18.40;94.90;;;;;;5076633;28;20618;-81
2022/08/03 02:05:06;;;;;;;2.37;2.10;;;18.40;95.20;;;;;;5067442;28;20720;-81
2022/08/03 02:07:34;;;;;;;2.17;2.03;;;18.40;95.80;;;;;;5068276;28;21052;-81
2022/08/03 02:10:03;;;;;;;2.33;2.13;;;18.30;95.60;;;;;;5067625;28;21040;-81
2022/08/03 02:12:32;;;;;;;2.77;2.57;;;18.20;96.20;;;;;;5070977;28;21032;-81
2022/08/03 02:15:01;;;;;;;2.60;2.40;;;18.20;96.30;;;;;;5075470;28;20621;-81
2022/08/03 02:17:30;;;;;;;2.33;2.10;;;18.20;96.80;;;;;;5070179;28;20620;-81
2022/08/03 02:20:00;;;;;;;3.10;2.40;;;18.20;95.80;;;;;;5086112;28;21395;-81
2022/08/03 02:22:28;;;;;;;2.43;2.23;;;18.20;96.00;;;;;;5080904;28;21077;-81
2022/08/03 02:24:56;;;;;;;3.23;3.03;;;18.30;95.50;;;;;;5073112;28;21202;-81
2022/08/03 02:27:25;;;;;;;3.97;3.20;;;18.30;96.10;;;;;;5085713;28;20640;-81
2022/08/03 02:29:55;;;;;;;2.70;2.50;;;18.20;96.50;;;;;;5086760;28;20767;-81
2022/08/03 02:32:28;;;;;;;2.53;2.33;;;18.20;97.30;;;;;;5085261;28;21160;-81
2022/08/03 02:34:59;;;;;;;2.67;2.47;;;18.20;96.80;;;;;;5072829;28;20602;-81
2022/08/03 02:37:30;;;;;;;2.67;2.47;;;18.20;96.80;;;;;;5083687;28;20668;-81
2022/08/03 02:40:01;;;;;;;2.93;2.70;;;18.30;97.10;;;;;;5068264;28;20625;-81
2022/08/03 02:42:30;;;;;;;3.30;2.73;;;18.20;97.00;;;;;;5070022;28;20617;-80
2022/08/03 02:45:00;;;;;;;2.57;2.37;;;18.10;97.50;;;;;;5070570;28;20621;-81
2022/08/03 02:47:28;;;;;;;2.10;2.00;;;18.10;98.10;;;;;;5070617;28;20613;-81
2022/08/03 02:49:58;;;;;;;2.53;2.33;;;18.10;98.10;;;;;;5073421;28;20663;-81
2022/08/03 02:52:28;;;;;;;2.27;2.07;;;18.00;98.20;;;;;;5072133;28;20699;-81
2022/08/03 02:54:58;;;;;;;3.57;3.27;;;18.00;98.40;;;;;;5089215;28;21044;-81
2022/08/03 02:57:28;;;;;;;2.63;2.27;;;18.10;98.00;;;;;;5087477;28;20655;-81
2022/08/03 02:59:56;;;;;;;1.90;1.80;;;18.00;97.40;;;;;;5070939;28;20727;-81
2022/08/03 03:02:24;;;;;;;3.27;2.50;;;18.00;97.10;;;;;;5071566;28;20626;-81
2022/08/03 03:04:53;;;;;;;2.83;2.63;;;18.10;96.80;;;;;;5070409;28;21255;-81
2022/08/03 03:07:21;;;;;;;2.63;2.53;;;18.10;97.30;;;;;;5079380;28;21228;-80
2022/08/03 03:09:49;;;;;;;2.83;2.63;;;18.00;98.10;;;;;;5076964;28;21261;-80
2022/08/03 03:12:17;;;;;;;2.50;2.30;;;17.80;99.00;;;;;;5085282;28;20732;-81
2022/08/03 03:14:44;;;;;;;3.20;2.90;;;17.90;98.90;;;;;;5071318;28;20712;-80
2022/08/03 03:17:12;;;;;;;3.03;2.70;;;17.90;99.10;;;;;;5077125;28;20628;-81
2022/08/03 03:19:40;;;;;;;2.30;2.10;;;17.90;99.00;;;;;;5071859;28;20716;-82
2022/08/03 03:22:08;;;;;;;2.40;2.20;;;18.00;98.50;;;;;;5071123;28;21195;-81
2022/08/03 03:24:37;;;;;;;2.70;2.50;;;17.90;98.90;;;;;;5071629;28;20630;-81
2022/08/03 03:27:04;;;;;;;3.17;2.87;;;18.00;99.20;;;;;;5071001;28;20636;-81
2022/08/03 03:29:33;;;;;;;2.50;2.30;;;17.90;99.30;;;;;;5086505;28;20674;-81
2022/08/03 03:32:01;;;;;;;2.93;2.60;;;17.90;99.70;;;;;;5072469;28;20651;-80
2022/08/03 03:34:29;;;;;;;3.30;3.00;;;17.90;99.90;;;;;;5077836;28;20725;-81
2022/08/03 03:36:57;;;;;;;3.17;2.60;;;17.90;99.70;;;;;;5077777;28;20621;-81
2022/08/03 03:39:24;;;;;;;2.70;2.50;;;17.80;99.90;;;;;;5089724;28;20668;-81
2022/08/03 03:41:52;;;;;;;2.73;2.47;;;17.70;99.90;;;;;;5073944;28;21041;-80
2022/08/03 03:44:19;;;;;;;2.80;2.60;;;17.60;99.90;;;;;;5088863;28;21452;-80
2022/08/03 03:46:46;;;;;;;2.40;2.20;;;17.50;99.90;;;;;;5090022;28;20648;-80
2022/08/03 03:49:13;;;;;;;3.27;2.97;;;17.50;99.90;;;;;;5070908;28;21108;-80
2022/08/03 03:51:40;;;;;;;2.13;1.90;;;17.50;99.90;;;;;;5068314;28;21374;-80
2022/08/03 03:54:07;;;;;;;3.50;3.20;;;17.50;99.90;;;;;;5072791;28;20992;-80
2022/08/03 03:56:34;;;;;;;3.00;2.80;;;17.50;99.90;;;;;;5070294;28;20719;-80
2022/08/03 03:59:02;;;;;;;2.50;2.30;;;17.50;99.90;;;;;;5073080;28;20625;-80
2022/08/03 04:01:29;;;;;;;2.50;2.30;;;17.60;99.90;;;;;;5069620;28;20605;-80
2022/08/03 04:03:56;;;;;;;3.07;2.80;;;17.60;99.90;;;;;;5071970;28;20625;-80
2022/08/03 04:11:58;;;;;;;2.37;2.27;;;17.70;99.90;;;;;;5084499;28;20621;-80
2022/08/03 04:14:28;;;;;;;2.30;2.10;;;17.70;99.90;;;;;;5083444;28;20620;-80
2022/08/03 04:16:58;;;;;;;3.07;2.77;;;17.70;99.90;;;;;;5084985;28;20614;-80
2022/08/03 04:19:30;;;;;;;2.57;2.30;;;17.80;99.90;;;;;;5069228;28;20746;-80
2022/08/03 04:22:02;;;;;;;3.13;2.73;;;17.70;99.90;;;;;;5079006;28;20686;-80
2022/08/03 04:24:34;;;;;;;2.50;2.30;;;17.70;99.90;;;;;;5070103;28;20629;-80
2022/08/03 04:27:04;;;;;;;3.70;3.10;;;17.70;99.90;;;;;;5068559;28;20728;-81
2022/08/03 04:29:35;;;;;;;2.77;2.57;;;17.70;99.90;;;;;;5087901;28;20703;-80
2022/08/03 04:32:05;;;;;;;3.20;2.90;;;17.70;99.90;;;;;;5086373;28;20630;-81
2022/08/03 04:34:32;;;;;;;2.83;2.63;;;17.70;99.90;;;;;;5070718;28;20679;-81
2022/08/03 04:37:02;;;;;;;3.17;2.70;;;17.70;99.90;;;;;;5071527;28;20710;-81
2022/08/03 04:39:31;;;;;;;2.87;2.60;;;17.80;99.90;;;;;;5085792;28;20616;-80
2022/08/03 04:42:02;;;;;;;3.17;2.90;;;17.90;99.90;;;;;;5072528;28;21592;-80
2022/08/03 04:44:31;;;;;;;3.47;2.87;;;17.90;99.90;;;;;;5087648;28;20710;-80
2022/08/03 04:47:00;;;;;;;3.63;2.63;;;17.90;99.90;;;;;;5088376;28;20721;-80
2022/08/03 04:49:28;;;;;;;4.87;3.40;;;17.90;99.90;;;;;;5070315;28;20646;-80
2022/08/03 04:51:55;;;;;;;3.33;2.80;;;18.00;99.90;;;;;;5068720;28;20706;-80
2022/08/03 04:54:22;;;;;;;3.40;2.93;;;18.10;99.90;;;;;;5067937;28;21271;-81
2022/08/03 04:56:49;;;;;;;4.27;2.97;;;18.20;99.90;;;;;;5068820;28;20660;-81
2022/08/03 04:59:16;;;;;;;6.70;2.90;;;18.20;99.90;;;;;;5068176;28;20724;-81
2022/08/03 05:01:43;;;;;;;2.60;2.40;;;18.30;99.90;;;;;;5084664;28;20637;-81
2022/08/03 05:04:11;;;;;;;3.27;2.97;;;18.30;99.90;;;;;;5067683;28;20729;-81
2022/08/03 05:06:38;;;;;;;2.77;2.57;;;18.50;99.90;;;;;;5084145;28;20628;-81
2022/08/03 05:09:06;;;;;;;3.90;3.03;;;18.50;99.90;;;;;;5070060;28;20621;-81
2022/08/03 05:11:33;;;;;;;3.33;3.10;;;18.60;99.90;;;;;;5083139;28;20668;-81
2022/08/03 05:13:59;;;;;;;4.57;3.43;;;18.80;99.90;;;;;;5070706;28;20621;-81
2022/08/03 05:16:26;;;;;;;2.80;2.60;;;18.90;99.90;;;;;;5086951;28;20608;-81
2022/08/03 05:18:53;;;;;;;3.27;2.97;;;19.00;99.90;;;;;;5086459;28;20672;-81
2022/08/03 05:21:22;;;;;;;3.13;2.87;;;19.00;99.90;;;;;;5086441;28;20724;-81
2022/08/03 05:23:48;;;;;;;3.07;2.80;;;19.00;99.90;;;;;;5068750;28;20621;-81
2022/08/03 05:26:15;;;;;;;3.00;2.80;;;19.00;99.90;;;;;;5078112;28;20645;-81
2022/08/03 05:28:42;;;;;;;2.60;2.40;;;19.20;99.90;;;;;;5075008;28;20673;-80
2022/08/03 05:31:09;;;;;;;4.03;3.60;;;19.30;99.90;;;;;;5077894;28;20669;-80
2022/08/03 05:33:36;;;;;;;3.30;3.00;;;19.30;99.20;;;;;;5074880;28;20622;-81
2022/08/03 05:36:03;;;;;;;3.00;2.67;;;19.50;99.10;;;;;;5077006;28;20686;-79
2022/08/03 05:38:32;;;;;;;2.70;2.50;;;19.50;99.10;;;;;;5075302;28;21076;-81
2022/08/03 05:40:59;;;;;;;2.97;2.73;;;19.60;98.90;;;;;;5066649;28;20657;-80
2022/08/03 05:43:25;;;;;;;3.40;3.00;;;19.70;97.90;;;;;;5067170;28;20639;-79
2022/08/03 05:45:53;;;;;;;2.80;2.60;;;19.80;97.90;;;;;;5067509;28;20627;-80
2022/08/03 05:48:20;;;;;;;3.40;3.10;;;19.90;97.30;;;;;;5066791;28;20657;-81
2022/08/03 05:50:47;;;;;;;2.83;2.63;;;20.00;97.40;;;;;;5067324;28;20689;-80
2022/08/03 05:53:14;;;;;;;3.20;2.90;;;20.10;97.20;;;;;;5067101;28;21144;-80
2022/08/03 05:55:42;;;;;;;4.47;2.70;;;20.10;97.30;;;;;;5066917;28;20645;-81
2022/08/03 05:58:09;;;;;;;3.30;2.70;;;20.20;97.50;;;;;;5069374;28;20691;-80
2022/08/03 06:00:36;;;;;;;2.73;2.53;;;20.20;97.20;;;;;;5079740;28;20711;-80
2022/08/03 06:03:04;;;;;;;2.47;2.27;;;20.40;96.60;;;;;;5074529;28;20625;-80
2022/08/03 06:05:35;;;;;;;3.10;2.70;;;20.50;96.20;;;;;;5081725;28;20620;-80
2022/08/03 06:08:02;;;;;;;2.90;2.70;;;20.60;95.80;;;;;;5074817;28;20629;-81
2022/08/03 06:10:29;;;;;;;3.27;2.97;;;20.80;95.20;;;;;;5085062;28;20695;-80
2022/08/03 06:12:58;;;;;;;3.30;3.00;;;20.90;94.70;;;;;;5081764;28;20608;-80
2022/08/03 06:15:25;;;;;;;2.30;2.10;;;21.00;94.40;;;;;;5079887;28;20630;-81
2022/08/03 06:17:52;;;;;;;3.20;1.83;;;21.10;94.30;;;;;;5086789;28;21190;-81
2022/08/03 06:20:20;;;;;;;2.50;2.30;;;21.20;94.20;;;;;;5075740;28;20652;-80
2022/08/03 06:22:48;;;;;;;2.70;2.33;;;21.20;94.50;;;;;;5081285;28;20626;-79
2022/08/03 06:25:15;;;;;;;2.20;2.00;;;21.30;94.60;;;;;;5070875;28;20629;-80
2022/08/03 06:27:42;;;;;;;2.73;2.47;;;21.30;94.30;;;;;;5074466;28;20632;-80
2022/08/03 06:30:12;;;;;;;2.60;2.40;;;21.50;94.30;;;;;;5070320;28;20656;-80
2022/08/03 06:32:39;;;;;;;2.17;1.97;;;21.50;94.20;;;;;;5070973;28;20661;-79
2022/08/03 06:35:06;;;;;;;2.50;2.30;;;21.50;93.80;;;;;;5076714;28;21371;-80
2022/08/03 06:37:42;;;;;;;2.30;2.10;;;21.60;93.80;;;;;;5078540;28;20660;-81
2022/08/03 06:40:11;;;;;;;2.70;2.37;;;21.70;93.60;;;;;;5070129;28;21067;-81
2022/08/03 06:42:38;;;;;;;2.90;2.60;;;21.80;93.60;;;;;;5069037;28;20625;-81
2022/08/03 06:45:07;;;;;;;2.30;2.13;;;21.90;93.50;;;;;;5069082;28;20614;-82
2022/08/03 06:47:36;;;;;;;2.73;2.53;;;22.10;93.40;;;;;;5069781;28;20665;-80
2022/08/03 06:50:03;;;;;;;3.13;2.20;;;22.20;93.40;;;;;;5070313;28;20762;-81
2022/08/03 06:52:30;;;;;;;4.70;3.30;;;22.30;92.80;;;;;;5069924;28;20663;-80
2022/08/03 06:54:57;;;;;;;2.70;2.50;;;22.40;92.60;;;;;;5069164;28;20660;-80
2022/08/03 06:57:24;;;;;;;2.80;2.60;;;22.50;92.00;;;;;;5070308;28;20633;-81
2022/08/03 06:59:51;;;;;;;2.20;2.10;;;22.50;92.30;;;;;;5069752;28;20710;-82
2022/08/03 07:02:19;;;;;;;2.33;2.20;;;22.60;92.00;;;;;;5074873;28;20628;-82
2022/08/03 07:04:47;;;;;;;2.43;2.27;;;22.70;91.90;;;;;;5082455;28;20624;-81
2022/08/03 07:07:14;;;;;;;2.50;2.30;;;22.80;92.30;;;;;;5082396;28;20626;-82
2022/08/03 07:09:41;;;;;;;2.93;2.17;;;22.90;91.70;;;;;;5085027;28;20659;-81
2022/08/03 07:12:08;;;;;;;2.43;2.23;;;22.90;91.50;;;;;;5078362;28;21360;-81
2022/08/03 07:14:35;;;;;;;3.07;1.90;;;23.10;91.70;;;;;;5080048;28;20621;-83
2022/08/03 07:17:02;;;;;;;2.57;2.40;;;23.30;91.50;;;;;;5078678;28;20624;-81
2022/08/03 07:19:28;;;;;;;4.60;2.77;;;23.30;91.30;;;;;;5079274;28;20646;-82
2022/08/03 07:21:57;;;;;;;1.83;1.73;;;23.30;91.40;;;;;;5077947;28;21208;-83
2022/08/03 07:24:24;;;;;;;1.90;1.80;;;23.40;91.00;;;;;;5078270;28;21029;-82
2022/08/03 07:26:54;;;;;;;2.20;2.03;;;23.50;90.50;;;;;;5078693;28;21162;-83
2022/08/03 07:29:21;;;;;;;2.97;2.00;;;23.70;90.80;;;;;;5079163;28;20617;-82
2022/08/03 07:31:48;;;;;;;3.70;2.67;;;23.80;89.20;;;;;;5085396;28;20664;-81
2022/08/03 07:34:15;;;;;;;2.40;2.20;;;23.90;88.80;;;;;;5082401;28;20632;-81
2022/08/03 07:36:42;;;;;;;2.43;2.33;;;24.10;89.30;;;;;;5080712;28;20639;-82
2022/08/03 07:39:10;;;;;;;2.50;1.83;;;24.20;89.30;;;;;;5081954;28;20620;-82
2022/08/03 07:41:37;;;;;;;3.23;2.90;;;24.40;88.30;;;;;;5075705;28;20626;-82
2022/08/03 07:44:04;;;;;;;3.00;2.80;;;24.40;88.80;;;;;;5070744;28;20617;-81
2022/08/03 07:46:31;;;;;;;2.60;2.40;;;24.60;87.70;;;;;;5069704;28;20652;-82
2022/08/03 07:48:58;;;;;;;2.10;1.90;;;24.70;87.30;;;;;;5075058;28;20656;-82
2022/08/03 07:51:25;;;;;;;2.47;2.20;;;24.80;86.70;;;;;;5072391;28;20668;-82
2022/08/03 07:53:52;;;;;;;2.60;2.40;;;25.00;85.70;;;;;;5085772;28;20617;-83
2022/08/03 07:56:21;;;;;;;2.20;2.00;;;25.00;87.20;;;;;;5070153;28;20664;-82
2022/08/03 07:58:48;;;;;;;2.40;2.20;;;25.10;84.50;;;;;;5076948;28;20625;-82
2022/08/03 08:01:15;;;;;;;3.00;2.50;;;25.10;84.90;;;;;;5082208;28;20662;-82
2022/08/03 08:03:42;;;;;;;1.67;1.57;;;25.20;83.10;;;;;;5087473;28;20648;-82
2022/08/03 08:06:09;;;;;;;1.43;1.33;;;25.30;81.20;;;;;;5069803;28;21023;-83
2022/08/03 08:08:37;;;;;;;1.70;1.60;;;25.40;81.50;;;;;;5069211;28;20613;-81
2022/08/03 08:11:04;;;;;;;1.77;1.67;;;25.50;80.70;;;;;;5084846;28;21234;-83
2022/08/03 08:13:33;;;;;;;1.77;1.67;;;25.50;79.70;;;;;;5077873;28;20644;-83
2022/08/03 08:16:01;;;;;;;1.63;1.53;;;25.70;80.00;;;;;;5078515;28;20625;-83
2022/08/03 08:18:28;;;;;;;1.43;1.33;;;26.00;75.50;;;;;;5071322;28;20613;-83
2022/08/03 08:20:55;;;;;;;1.07;1.07;;;26.00;76.00;;;;;;5068555;28;20625;-83
2022/08/03 08:23:24;;;;;;;1.63;1.50;;;26.10;76.30;;;;;;5083967;28;20648;-83
2022/08/03 08:25:52;;;;;;;2.03;1.40;;;26.30;75.90;;;;;;5073574;28;20724;-84
2022/08/03 08:28:19;;;;;;;1.63;1.53;;;26.30;76.90;;;;;;5069593;28;21204;-82
2022/08/03 08:30:48;;;;;;;1.40;1.30;;;26.50;76.70;;;;;;5067685;28;20685;-83
2022/08/03 08:33:15;;;;;;;1.47;1.37;;;26.60;75.00;;;;;;5077226;28;21011;-83
2022/08/03 08:35:42;;;;;;;1.33;1.23;;;26.70;73.80;;;;;;5068679;28;20679;-83
2022/08/03 08:38:08;;;;;;;1.17;1.07;;;26.80;73.10;;;;;;5076829;28;20712;-83
2022/08/03 08:40:35;;;;;;;1.40;1.30;;;26.90;73.40;;;;;;5078671;28;20625;-85
2022/08/03 08:43:02;;;;;;;1.23;1.13;;;27.00;71.80;;;;;;5072720;28;20671;-83
2022/08/03 08:45:29;;;;;;;1.30;1.30;;;27.10;71.10;;;;;;5071971;28;20983;-83
2022/08/03 08:48:00;;;;;;;1.53;1.43;;;27.10;70.50;;;;;;5084455;28;21083;-84
2022/08/03 08:50:27;;;;;;;4.00;1.50;;;27.20;70.80;;;;;;5075173;28;20695;-84
2022/08/03 08:53:00;;;;;;;1.70;1.60;;;27.20;71.30;;;;;;5070809;28;20642;-84
2022/08/03 08:55:29;;;;;;;1.43;1.33;;;27.40;70.00;;;;;;5078326;28;20994;-83
2022/08/03 08:58:14;;;;;;;0.80;0.80;;;27.50;66.20;;;;;;5075982;28;21383;-85
2022/08/03 09:00:43;;;;;;;1.20;1.10;;;;;;;;;;5064024;28;20636;-83
2022/08/03 09:03:13;;;;;;;1.10;1.10;;;27.70;65.40;;;;;;5069136;28;20660;-83
2022/08/03 09:05:43;;;;;;;1.37;1.23;;;27.80;67.20;;;;;;5075512;28;20635;-83
2022/08/03 09:08:09;;;;;;;3.00;1.70;;;28.00;65.90;;;;;;5075023;28;20725;-82
2022/08/03 09:10:36;;;;;;;1.43;1.33;;;28.00;67.00;;;;;;5074545;28;20765;-83
2022/08/03 09:13:03;;;;;;;1.27;1.20;;;28.10;66.30;;;;;;5076413;28;20645;-83
2022/08/03 09:15:32;;;;;;;1.50;1.40;;;28.10;65.10;;;;;;5075661;28;20661;-83
2022/08/03 09:18:01;;;;;;;1.17;1.17;;;28.10;65.80;;;;;;5076429;28;20613;-83
2022/08/03 09:20:31;;;;;;;1.87;1.23;;;28.00;66.90;;;;;;5074431;28;20679;-85
2022/08/03 09:22:59;;;;;;;1.30;1.30;;;28.10;66.50;;;;;;5080498;28;20628;-83
2022/08/03 09:25:34;;;;;;;1.50;1.40;;;28.10;64.00;;;;;;5075851;28;20633;-84
2022/08/03 09:28:10;;;;;;;1.70;1.50;;;28.10;65.10;;;;;;5079004;28;20728;-83
2022/08/03 09:30:38;;;;;;;1.00;0.93;;;28.30;62.80;;;;;;5083752;28;20642;-82
2022/08/03 09:33:06;;;;;;;1.30;1.23;;;28.30;59.90;;;;;;5069712;28;20622;-84
2022/08/03 09:35:41;;;;;;;1.83;1.73;;;28.40;61.70;;;;;;5081652;28;20632;-84
2022/08/03 09:38:13;;;;;;;1.30;1.20;;;28.50;62.60;;;;;;5085760;28;20629;-84
2022/08/03 09:40:41;;;;;;;1.53;1.00;;;28.60;59.90;;;;;;5084441;28;20635;-83
2022/08/03 09:43:08;;;;;;;1.27;1.10;;;28.80;59.00;;;;;;5085965;28;20724;-84
2022/08/03 09:45:36;;;;;;;1.50;1.40;;;28.80;58.30;;;;;;5071078;28;20679;-84
2022/08/03 09:48:23;;;;;;;0.80;0.80;;;28.90;60.20;;;;;;5072738;28;20732;-83
2022/08/03 09:50:52;;;;;;;1.77;1.27;;;29.00;58.50;;;;;;5090101;28;20649;-84
2022/08/03 09:53:19;;;;;;;1.07;0.97;;;29.10;56.00;;;;;;5077318;28;20990;-84
2022/08/03 09:55:54;;;;;;;0.90;0.90;;;29.10;56.90;;;;;;5086975;28;20773;-85
2022/08/03 09:58:22;;;;;;;0.93;0.93;;;29.30;58.00;;;;;;5079474;28;20631;-84
2022/08/03 10:00:53;;;;;;;1.40;1.30;;;29.40;58.50;;;;;;5081141;28;20625;-83
2022/08/03 10:03:20;;;;;;;1.13;1.10;;;29.50;58.50;;;;;;5075424;28;20736;-83
2022/08/03 10:05:47;;;;;;;1.40;1.30;;;29.60;56.90;;;;;;5081968;28;20625;-85
2022/08/03 10:08:17;;;;;;;1.10;1.00;;;29.70;54.90;;;;;;5074414;28;20629;-83
2022/08/03 10:10:46;;;;;;;1.63;1.53;;;29.80;54.60;;;;;;5078558;28;20625;-83
2022/08/03 10:13:15;;;;;;;0.97;0.90;;;29.70;55.80;;;;;;5080786;28;20632;-84
2022/08/03 10:15:42;;;;;;;2.97;1.53;;;29.80;54.50;;;;;;5077740;28;20682;-82
2022/08/03 10:18:09;;;;;;;1.30;1.20;;;29.90;54.80;;;;;;5077322;28;21155;-84
2022/08/03 10:20:39;;;;;;;1.00;1.00;;;30.00;54.80;;;;;;5085190;28;20649;-84
2022/08/03 10:23:09;;;;;;;1.30;1.20;;;30.00;53.70;;;;;;5077940;28;20661;-85
2022/08/03 10:25:39;;;;;;;1.30;1.20;;;30.10;54.20;;;;;;5087509;28;20618;-82
2022/08/03 10:28:07;;;;;;;1.10;1.00;;;30.30;53.30;;;;;;5076803;28;20625;-85
2022/08/03 10:30:36;;;;;;;1.27;1.20;;;30.40;54.00;;;;;;5078668;28;21203;-83
2022/08/03 10:33:09;;;;;;;1.20;1.10;;;30.50;54.10;;;;;;5080605;28;21067;-83
2022/08/03 10:35:40;;;;;;;1.00;1.00;;;30.60;55.30;;;;;;5085792;28;20636;-84
2022/08/03 10:38:10;;;;;;;1.30;1.20;;;30.60;53.10;;;;;;5090622;28;20689;-82
2022/08/03 10:40:40;;;;;;;1.40;1.30;;;30.70;53.40;;;;;;5081993;28;20667;-84
2022/08/03 10:43:10;;;;;;;1.20;1.20;;;30.70;53.60;;;;;;5086589;28;20660;-86
2022/08/03 10:45:41;;;;;;;1.40;1.30;;;30.90;53.20;;;;;;5083423;28;21053;-85
2022/08/03 10:48:08;;;;;;;1.37;1.30;;;30.90;54.50;;;;;;5070726;28;20687;-84
2022/08/03 10:50:36;;;;;;;1.43;1.33;;;31.20;53.20;;;;;;5080264;28;20752;-83
2022/08/03 10:53:05;;;;;;;1.47;1.37;;;31.20;53.90;;;;;;5083644;28;21119;-85
2022/08/03 10:58:50;;;;;;;1.10;1.10;;;31.50;51.20;;;;;;5078479;28;21197;-85
2022/08/03 11:01:18;;;;;;;1.00;1.00;;;31.80;51.80;;;;;;5080490;28;20722;-87
2022/08/03 11:04:17;;;;;;;1.80;1.70;;;32.00;50.70;;;;;;5079311;28;21238;-84
2022/08/03 11:06:45;;;;;;;1.60;1.50;;;31.90;50.40;;;;;;5078895;28;20624;-85
2022/08/03 11:09:17;;;;;;;1.30;1.10;;;32.00;50.40;;;;;;5080135;28;20677;-84
2022/08/03 11:11:45;;;;;;;1.10;1.00;;;32.20;50.90;;;;;;5080780;28;20675;-86
2022/08/03 11:14:17;;;;;;;1.33;1.23;;;32.10;50.30;;;;;;5069558;28;20698;-83
2022/08/03 11:16:46;;;;;;;0.90;0.90;;;32.20;50.70;;;;;;5070159;28;20614;-85
2022/08/03 11:19:15;;;;;;;1.17;1.07;;;32.40;50.70;;;;;;5080578;28;20622;-84
2022/08/03 11:21:56;;;;;;;1.87;1.50;;;32.50;51.50;;;;;;5074955;28;20727;-85
2022/08/03 11:24:56;;;;;;;1.30;1.20;;;32.80;51.10;;;;;;5089101;28;20624;-85
2022/08/03 11:27:24;;;;;;;1.23;1.13;;;33.10;49.40;;;;;;5070014;28;20613;-84
2022/08/03 11:30:04;;;;;;;1.57;1.47;;;33.40;48.50;;;;;;5069498;28;20613;-85
2022/08/03 11:33:01;;;;;;;1.10;1.10;;;33.40;47.50;;;;;;5069157;28;21266;-85
2022/08/03 11:35:30;;;;;;;0.97;0.97;;;33.50;48.10;;;;;;5034042;28;21198;-84
2022/08/03 11:38:18;;;;;;;1.70;1.60;;;33.80;48.30;;;;;;5070353;28;20647;-86
2022/08/03 11:40:47;;;;;;;3.17;1.40;;;33.90;47.40;;;;;;5073741;28;20632;-84
2022/08/03 11:43:44;;;;;;;1.73;1.37;;;34.10;48.90;;;;;;5089677;28;20608;-83
2022/08/03 11:46:17;;;;;;;1.43;1.33;;;34.60;48.10;;;;;;5076422;28;20739;-83
2022/08/03 11:48:46;;;;;;;1.60;1.47;;;34.60;47.40;;;;;;5089065;28;20647;-85
2022/08/03 11:51:24;;;;;;;1.20;1.10;;;34.80;47.30;;;;;;5086951;28;20621;-85
2022/08/03 11:53:55;;;;;;;1.27;1.27;;;35.40;46.00;;;;;;5085331;28;21462;-84
2022/08/03 11:56:22;;;;;;;1.33;1.23;;;35.60;44.90;;;;;;5089525;28;20664;-85
2022/08/03 11:58:50;;;;;;;1.43;1.37;;;36.30;43.90;;;;;;5087855;28;20727;-85
2022/08/03 12:01:20;;;;;;;1.37;1.27;;;36.40;45.00;;;;;;5088918;28;20698;-84
2022/08/03 12:03:47;;;;;;;1.40;1.30;;;36.90;43.50;;;;;;5082970;28;20731;-86
2022/08/03 12:06:16;;;;;;;1.50;1.40;;;37.50;43.30;;;;;;5084894;28;20657;-84
2022/08/03 12:08:44;;;;;;;1.33;1.33;;;38.60;43.00;;;;;;5078736;28;20663;-85
2022/08/03 12:11:13;;;;;;;2.13;2.03;;;38.60;43.00;;;;;;5071238;28;20194;-84
2022/08/03 12:13:42;;;;;;;1.45;1.35;;;39.10;41.00;;;;;;5076644;28;20317;-81
2022/08/03 12:16:10;;;;;;;1.40;1.23;;;39.00;41.90;;;;;;5070906;28;20199;-82
2022/08/03 12:18:38;;;;;;;1.45;1.35;;;40.00;40.50;;;;;;5084218;28;20208;-84
2022/08/03 12:21:07;;;;;;;1.10;1.10;;;40.30;38.90;;;;;;5087703;28;20711;-83
2022/08/03 12:23:34;;;;;;;1.42;1.33;;;41.10;38.00;;;;;;5068930;28;20255;-85
2022/08/03 12:26:02;;;;;;;1.70;1.60;;;41.40;37.90;;;;;;5083736;28;20210;-82
2022/08/03 12:28:29;;;;;;;1.27;1.27;;;41.70;36.30;;;;;;5075946;28;20205;-83
2022/08/03 12:31:02;;;;;;;1.50;1.40;;;42.00;36.90;;;;;;5078116;28;20216;-83
2022/08/03 12:33:29;;;;;;;1.30;1.20;;;42.00;38.40;;;;;;5077021;28;20217;-83
2022/08/03 12:36:06;;;;;;;1.50;1.42;;;42.00;37.10;;;;;;5087208;28;20194;-85
2022/08/03 12:38:35;;;;;;;1.20;1.20;;;42.60;35.50;;;;;;5069313;28;20706;-84
2022/08/03 12:41:05;;;;;;;1.00;1.00;;;42.70;34.90;;;;;;5073860;28;20194;-83
2022/08/03 12:43:32;;;;;;;1.50;1.35;;;42.90;35.50;;;;;;5074286;28;20190;-83
2022/08/03 12:46:13;;;;;;;1.40;1.30;;;42.90;36.60;;;;;;5089146;28;20198;-83
2022/08/03 12:49:06;;;;;;;1.35;1.35;;;42.90;34.90;;;;;;5076089;28;20281;-82
2022/08/03 12:51:37;;;;;;;1.27;1.25;;;43.30;34.40;;;;;;5076368;28;20295;-83
2022/08/03 12:54:05;;;;;;;1.30;1.25;;;43.40;33.80;;;;;;5075673;28;20732;-82
2022/08/03 12:56:31;;;;;;;1.05;1.05;;;43.80;33.20;;;;;;5080192;28;20210;-83
2022/08/03 12:58:58;;;;;;;1.42;1.33;;;43.70;33.40;;;;;;5076395;28;20205;-82
2022/08/03 13:01:28;;;;;;;1.50;1.40;;;43.50;33.50;;;;;;5077555;28;20233;-84
2022/08/03 13:03:55;;;;;;;1.65;1.55;;;43.60;33.00;;;;;;5075326;28;20218;-82
2022/08/03 13:06:24;;;;;;;1.38;1.38;;;43.60;33.80;;;;;;5078523;28;20199;-83
2022/08/03 13:09:03;;;;;;;1.35;1.35;;;43.80;33.60;;;;;;5077664;28;20214;-81